Time;durP1;ratioP1;P1;durP2;ratioP2;P2;SDS_P1;SDS_P2;PMS_P1;PMS_P2;Temp;Humidity;BMP_temperature;BMP_pressure;BME280_temperature;BME280_humidity;BME280_pressure;Samples;Min_cycle;Max_cycle;Signal;HPM_P1;HPM_P2
2021/04/12 00:01:06;;;;;;;10.07;4.00;;;1.50;99.90;;;;;;4377297;32;20198;-64
2021/04/12 00:03:47;;;;;;;6.53;3.60;;;1.50;99.90;;;;;;4377947;32;20149;-65
2021/04/12 00:06:19;;;;;;;5.50;3.40;;;1.50;99.90;;;;;;4377327;32;20179;-64
2021/04/12 00:08:50;;;;;;;7.13;3.67;;;1.50;99.90;;;;;;4373076;32;20236;-66
2021/04/12 00:11:27;;;;;;;8.10;3.73;;;1.60;99.90;;;;;;4373165;32;20229;-65
2021/04/12 00:13:59;;;;;;;4.47;3.23;;;1.60;99.90;;;;;;4375716;32;20475;-64
2021/04/12 00:16:29;;;;;;;6.63;3.77;;;1.50;99.90;;;;;;4386574;32;20160;-64
2021/04/12 00:19:01;;;;;;;7.03;3.63;;;1.60;99.90;;;;;;4381046;32;20464;-63
2021/04/12 00:21:33;;;;;;;5.57;3.70;;;1.50;99.90;;;;;;4379112;32;20170;-62
2021/04/12 00:24:07;;;;;;;6.17;3.67;;;1.60;99.90;;;;;;4377208;32;20153;-65
2021/04/12 00:26:39;;;;;;;4.33;3.17;;;1.50;99.90;;;;;;4376660;32;20164;-64
2021/04/12 00:29:11;;;;;;;6.47;3.60;;;1.50;99.90;;;;;;4372785;32;20647;-62
2021/04/12 00:31:43;;;;;;;5.90;3.03;;;1.50;99.90;;;;;;4376901;32;20200;-65
2021/04/12 00:34:19;;;;;;;5.67;3.43;;;1.50;99.90;;;;;;4375450;32;20186;-65
2021/04/12 00:36:51;;;;;;;9.67;4.33;;;1.40;99.90;;;;;;4374102;32;20206;-63
2021/04/12 00:39:22;;;;;;;7.73;3.70;;;1.40;99.90;;;;;;4376751;32;20239;-63
2021/04/12 00:42:03;;;;;;;5.13;3.33;;;1.40;99.90;;;;;;4377223;32;20548;-62
2021/04/12 00:44:43;;;;;;;5.47;3.10;;;1.40;99.90;;;;;;4377177;32;20144;-62
2021/04/12 00:47:17;;;;;;;6.83;3.77;;;1.40;99.90;;;;;;4386367;32;20180;-64
2021/04/12 00:50:02;;;;;;;8.57;3.90;;;1.30;99.90;;;;;;4370756;32;20198;-62
2021/04/12 00:52:45;;;;;;;8.37;3.27;;;1.30;99.90;;;;;;4375506;32;20277;-64
2021/04/12 00:55:35;;;;;;;8.03;3.93;;;1.30;99.90;;;;;;4377520;32;20603;-64
2021/04/12 00:58:20;;;;;;;6.33;3.63;;;1.30;99.90;;;;;;4377919;32;20198;-63
2021/04/12 01:00:54;;;;;;;7.10;3.70;;;1.20;99.90;;;;;;4377452;32;20167;-62
2021/04/12 01:03:41;;;;;;;7.33;4.33;;;1.20;99.90;;;;;;4377055;32;20221;-63
2021/04/12 01:06:15;;;;;;;10.70;4.37;;;1.20;99.90;;;;;;4369449;32;20210;-65
2021/04/12 01:08:58;;;;;;;5.53;4.13;;;1.20;99.90;;;;;;4374852;32;20235;-67
2021/04/12 01:11:51;;;;;;;6.70;4.00;;;1.20;99.90;;;;;;4378246;32;20228;-63
2021/04/12 01:14:45;;;;;;;11.17;4.83;;;1.10;99.90;;;;;;4376323;32;20187;-63
2021/04/12 01:17:36;;;;;;;6.80;4.30;;;1.10;99.90;;;;;;4373712;32;20228;-65
2021/04/12 01:20:32;;;;;;;7.40;4.00;;;1.10;99.90;;;;;;4376445;32;20195;-61
2021/04/12 01:23:35;;;;;;;7.87;4.23;;;1.20;99.90;;;;;;4301502;33;20158;-61
2021/04/12 01:26:33;;;;;;;7.67;4.40;;;1.10;99.90;;;;;;4295464;33;20217;-64
2021/04/12 01:29:55;;;;;;;6.13;4.40;;;1.10;99.90;;;;;;4300422;33;20162;-65
2021/04/12 01:33:09;;;;;;;9.70;4.97;;;1.10;99.90;;;;;;4233924;33;20171;-63
2021/04/12 01:35:41;;;;;;;8.53;4.10;;;1.10;99.90;;;;;;4235018;33;20174;-64
2021/04/12 01:38:28;;;;;;;8.60;4.83;;;1.00;99.90;;;;;;4243589;33;20151;-63
2021/04/12 01:41:26;;;;;;;6.57;4.10;;;1.00;99.90;;;;;;4242879;33;20522;-64
2021/04/12 01:44:13;;;;;;;8.37;4.60;;;1.00;99.90;;;;;;4211385;34;20274;-65
2021/04/12 01:46:49;;;;;;;9.30;5.13;;;1.00;99.90;;;;;;4215046;34;20219;-63
2021/04/12 01:49:25;;;;;;;9.10;4.07;;;1.00;99.90;;;;;;4219892;34;20573;-64
2021/04/12 01:52:18;;;;;;;13.73;4.73;;;1.00;99.90;;;;;;4215069;34;20190;-63
2021/04/12 01:55:08;;;;;;;6.03;4.03;;;1.00;99.90;;;;;;4213903;33;20153;-63
2021/04/12 01:57:55;;;;;;;8.77;4.50;;;1.10;99.90;;;;;;4207415;34;20175;-62
2021/04/12 02:00:46;;;;;;;10.40;4.13;;;1.10;99.90;;;;;;4257527;33;20452;-64
2021/04/12 02:03:41;;;;;;;12.60;4.43;;;1.20;99.90;;;;;;4287656;33;20192;-62
2021/04/12 02:06:33;;;;;;;7.20;4.10;;;1.30;99.90;;;;;;4285608;33;20176;-61
2021/04/12 02:09:09;;;;;;;7.30;4.03;;;1.50;99.90;;;;;;4327607;33;20165;-65
2021/04/12 02:11:58;;;;;;;7.63;4.47;;;1.50;99.90;;;;;;4343657;33;20165;-65
2021/04/12 02:14:44;;;;;;;6.83;3.67;;;1.40;99.90;;;;;;4335647;33;20207;-62
2021/04/12 02:17:21;;;;;;;9.90;4.70;;;1.40;99.90;;;;;;4348700;32;20528;-67
2021/04/12 02:20:13;;;;;;;8.00;3.90;;;1.30;99.90;;;;;;4376204;32;20239;-62
2021/04/12 02:23:13;;;;;;;5.00;3.87;;;1.30;99.90;;;;;;4368796;32;20215;-63
2021/04/12 02:26:04;;;;;;;6.53;3.83;;;1.20;99.90;;;;;;4300693;33;20240;-64
2021/04/12 02:28:43;;;;;;;7.60;3.80;;;1.20;99.90;;;;;;4300440;33;20173;-62
2021/04/12 02:31:22;;;;;;;6.87;3.43;;;1.30;99.90;;;;;;4294206;33;20193;-63
2021/04/12 02:33:59;;;;;;;5.47;3.30;;;1.20;99.90;;;;;;4301049;33;20185;-64
2021/04/12 02:36:45;;;;;;;7.47;3.93;;;1.30;99.90;;;;;;4300030;33;20161;-63
2021/04/12 02:39:29;;;;;;;5.83;3.33;;;1.30;99.90;;;;;;4304351;33;20173;-63
2021/04/12 02:42:09;;;;;;;7.07;2.63;;;1.30;99.90;;;;;;4301918;33;20192;-62
2021/04/12 02:45:04;;;;;;;7.43;2.67;;;1.40;99.90;;;;;;4298787;33;20196;-65
2021/04/12 02:47:43;;;;;;;7.97;3.23;;;1.50;99.90;;;;;;4257546;33;20174;-63
2021/04/12 02:50:38;;;;;;;4.97;3.03;;;1.50;99.90;;;;;;4273787;33;20249;-64
2021/04/12 02:53:17;;;;;;;7.37;2.83;;;1.60;99.90;;;;;;4269308;33;20287;-64
2021/04/12 02:55:59;;;;;;;5.17;2.73;;;1.60;99.90;;;;;;4273884;33;20174;-64
2021/04/12 02:59:07;;;;;;;4.77;2.50;;;1.60;99.90;;;;;;4281676;33;20179;-64
2021/04/12 03:02:01;;;;;;;5.80;2.53;;;1.50;99.90;;;;;;4333743;33;20558;-63
2021/04/12 03:04:51;;;;;;;2.83;2.53;;;1.50;99.90;;;;;;4339185;33;20271;-63
2021/04/12 03:07:42;;;;;;;3.40;2.60;;;1.50;99.90;;;;;;4345905;33;20237;-64
2021/04/12 03:10:42;;;;;;;5.30;2.80;;;1.50;99.90;;;;;;4294515;33;20213;-64
2021/04/12 03:13:54;;;;;;;3.90;2.47;;;1.60;99.90;;;;;;4285375;33;20151;-62
2021/04/12 03:16:39;;;;;;;7.03;2.83;;;1.50;99.90;;;;;;4294627;33;20181;-67
2021/04/12 03:19:59;;;;;;;7.40;3.03;;;1.60;99.90;;;;;;4287288;33;20253;-65
2021/04/12 03:22:59;;;;;;;5.83;3.07;;;1.50;99.90;;;;;;4289563;33;20251;-63
2021/04/12 03:25:34;;;;;;;6.20;2.40;;;1.50;99.90;;;;;;4319199;33;20224;-65
2021/04/12 03:28:20;;;;;;;3.63;2.40;;;1.50;99.90;;;;;;4322927;33;20180;-65
2021/04/12 03:30:58;;;;;;;3.67;2.70;;;1.50;99.90;;;;;;4326993;33;20503;-65
2021/04/12 03:33:33;;;;;;;3.37;2.10;;;1.60;99.90;;;;;;4328323;33;20447;-62
2021/04/12 03:36:18;;;;;;;5.60;2.60;;;1.70;99.90;;;;;;4324577;33;20224;-66
2021/04/12 03:38:57;;;;;;;4.90;2.53;;;1.80;99.90;;;;;;4325341;33;20165;-64
2021/04/12 03:41:55;;;;;;;4.73;1.90;;;1.80;99.90;;;;;;4328954;33;20520;-66
2021/04/12 03:44:49;;;;;;;3.80;2.10;;;1.80;99.90;;;;;;4328531;33;20671;-64
2021/04/12 03:47:40;;;;;;;5.13;2.10;;;1.80;99.90;;;;;;4350987;32;20224;-63
2021/04/12 03:50:21;;;;;;;7.60;2.07;;;1.60;99.90;;;;;;4371580;32;20200;-62
2021/04/12 03:53:42;;;;;;;4.60;1.67;;;1.50;99.90;;;;;;4369807;32;20223;-64
2021/04/12 03:56:22;;;;;;;2.70;2.07;;;1.40;99.90;;;;;;4371861;32;20144;-63
2021/04/12 03:59:08;;;;;;;3.07;1.90;;;1.40;99.90;;;;;;4375176;32;20282;-65
2021/04/12 04:02:02;;;;;;;7.50;3.03;;;1.30;99.90;;;;;;4365496;32;20148;-64
2021/04/12 04:04:37;;;;;;;2.47;1.90;;;1.20;99.90;;;;;;4363552;32;20224;-63
2021/04/12 04:07:29;;;;;;;4.03;2.60;;;1.20;99.90;;;;;;4374678;32;20275;-65
2021/04/12 04:10:13;;;;;;;3.43;2.43;;;1.10;99.90;;;;;;4374145;32;20931;-64
2021/04/12 04:12:46;;;;;;;4.87;2.33;;;1.10;99.90;;;;;;4384168;32;20521;-65
2021/04/12 04:15:33;;;;;;;6.60;3.57;;;1.00;99.90;;;;;;4375014;32;20567;-63
2021/04/12 04:18:28;;;;;;;6.17;3.30;;;1.00;99.90;;;;;;4374404;32;20450;-67
2021/04/12 04:21:32;;;;;;;6.43;2.70;;;0.90;99.90;;;;;;4372163;32;20152;-62
2021/04/12 04:24:23;;;;;;;5.07;3.87;;;0.90;99.90;;;;;;4375428;32;20144;-65
2021/04/12 04:27:30;;;;;;;4.47;2.77;;;0.80;99.90;;;;;;4375620;32;20235;-63
2021/04/12 04:30:22;;;;;;;4.37;2.77;;;0.80;99.90;;;;;;4297842;33;20236;-64
2021/04/12 04:33:29;;;;;;;7.73;4.47;;;0.80;99.90;;;;;;4304838;33;20189;-62
2021/04/12 04:36:20;;;;;;;10.23;4.33;;;0.70;99.90;;;;;;4243944;33;20166;-64
2021/04/12 04:39:21;;;;;;;8.07;4.20;;;0.60;99.90;;;;;;4244434;33;20163;-62
2021/04/12 04:42:05;;;;;;;3.73;3.17;;;0.60;99.90;;;;;;4237733;33;20655;-63
2021/04/12 04:44:54;;;;;;;5.53;3.13;;;0.60;99.90;;;;;;4243610;33;20238;-66
2021/04/12 04:47:57;;;;;;;4.87;3.20;;;0.60;99.90;;;;;;4244975;33;20228;-62
2021/04/12 04:50:54;;;;;;;4.60;3.17;;;0.60;99.90;;;;;;4234193;33;20311;-63
2021/04/12 04:53:42;;;;;;;6.07;3.10;;;0.60;99.90;;;;;;4230934;33;20680;-61
2021/04/12 04:56:18;;;;;;;5.20;3.03;;;0.60;99.90;;;;;;4239677;33;20166;-65
2021/04/12 04:58:59;;;;;;;3.90;2.40;;;0.60;99.90;;;;;;4240006;33;20160;-63
2021/04/12 05:01:45;;;;;;;5.57;3.00;;;0.60;99.90;;;;;;4243654;33;20328;-64
2021/04/12 05:04:55;;;;;;;3.30;2.83;;;0.70;99.90;;;;;;4239045;33;20161;-63
2021/04/12 05:07:48;;;;;;;5.83;2.70;;;0.70;99.90;;;;;;4279636;33;20176;-62
2021/04/12 05:10:36;;;;;;;3.70;2.80;;;0.90;99.90;;;;;;4258007;33;20250;-62
2021/04/12 05:13:28;;;;;;;6.83;3.20;;;1.00;99.90;;;;;;4256156;33;20170;-62
2021/04/12 05:16:30;;;;;;;5.00;2.73;;;1.20;99.90;;;;;;4254414;33;20234;-63
2021/04/12 05:19:43;;;;;;;4.43;2.67;;;1.40;99.90;;;;;;4257983;33;20166;-65
2021/04/12 05:22:54;;;;;;;4.40;2.70;;;1.60;99.90;;;;;;4250389;33;20203;-62
2021/04/12 05:25:56;;;;;;;4.10;2.67;;;1.90;99.90;;;;;;4207664;34;20152;-64
2021/04/12 05:28:45;;;;;;;4.53;2.30;;;2.20;99.90;;;;;;4206776;34;20270;-62
2021/04/12 05:31:30;;;;;;;3.33;2.03;;;2.50;99.90;;;;;;4205312;34;20191;-64
2021/04/12 05:34:28;;;;;;;3.20;2.10;;;2.70;99.90;;;;;;4197770;33;20681;-62
2021/04/12 05:37:10;;;;;;;7.57;2.27;;;2.80;99.90;;;;;;4197441;34;20619;-61
2021/04/12 05:40:13;;;;;;;4.47;1.80;;;3.60;99.90;;;;;;4208489;34;20743;-62
2021/04/12 05:43:02;;;;;;;4.03;1.90;;;4.40;99.90;;;;;;4203305;34;20308;-61
2021/04/12 05:46:03;;;;;;;3.27;1.60;;;4.70;99.90;;;;;;4260464;33;20667;-64
2021/04/12 05:48:53;;;;;;;7.27;1.80;;;4.70;99.40;;;;;;4311777;33;20232;-64
2021/04/12 05:51:30;;;;;;;4.40;1.70;;;4.40;99.00;;;;;;4311480;33;20163;-64
2021/04/12 05:54:22;;;;;;;3.30;1.63;;;4.10;99.20;;;;;;4315259;33;20563;-65
2021/04/12 05:57:12;;;;;;;2.87;1.50;;;3.80;99.60;;;;;;4306560;33;20697;-62
2021/04/12 05:59:59;;;;;;;2.40;1.60;;;3.60;99.90;;;;;;4321254;33;20176;-63
2021/04/12 06:02:37;;;;;;;2.20;1.70;;;3.50;99.90;;;;;;4357261;32;20528;-64
2021/04/12 06:05:15;;;;;;;3.23;1.83;;;3.50;99.90;;;;;;4369067;32;20184;-65
2021/04/12 06:08:15;;;;;;;3.63;1.80;;;3.50;99.90;;;;;;4365061;32;20344;-61
2021/04/12 06:11:03;;;;;;;7.37;2.23;;;3.70;99.90;;;;;;4370750;32;20343;-63
2021/04/12 06:14:09;;;;;;;6.13;2.20;;;4.30;99.90;;;;;;4369034;32;20192;-64
2021/04/12 06:17:03;;;;;;;5.93;2.17;;;4.60;99.60;;;;;;4368290;32;20153;-64
2021/04/12 06:19:51;;;;;;;3.70;1.83;;;4.60;99.10;;;;;;4367246;32;20166;-63
2021/04/12 06:22:49;;;;;;;6.53;2.07;;;4.70;99.00;;;;;;4366110;32;20189;-63
2021/04/12 06:25:53;;;;;;;3.30;2.03;;;4.70;98.90;;;;;;4368857;32;20576;-62
2021/04/12 06:28:29;;;;;;;4.30;2.57;;;4.60;98.70;;;;;;4297037;33;20204;-62
2021/04/12 06:31:37;;;;;;;6.77;2.63;;;4.60;98.80;;;;;;4296876;33;20581;-63
2021/04/12 06:34:32;;;;;;;4.43;2.47;;;4.60;98.80;;;;;;4298182;33;20240;-61
2021/04/12 06:37:06;;;;;;;9.63;2.47;;;4.60;99.00;;;;;;4296896;33;20206;-62
2021/04/12 06:40:33;;;;;;;3.17;2.50;;;4.80;99.20;;;;;;4296689;33;20257;-62
2021/04/12 06:43:39;;;;;;;4.60;2.20;;;4.90;98.70;;;;;;4214752;34;20164;-62
2021/04/12 06:46:32;;;;;;;7.13;2.10;;;5.10;98.40;;;;;;4211747;34;20240;-61
2021/04/12 06:49:44;;;;;;;3.77;2.37;;;5.50;97.30;;;;;;4212078;34;20244;-61
2021/04/12 06:52:43;;;;;;;5.93;2.47;;;5.70;96.80;;;;;;4213883;34;20186;-62
2021/04/12 06:55:23;;;;;;;3.90;2.17;;;6.00;96.10;;;;;;4166973;34;20164;-65
2021/04/12 06:58:36;;;;;;;5.80;2.20;;;6.40;95.10;;;;;;4162006;34;20231;-65
2021/04/12 07:01:46;;;;;;;6.73;1.53;;;7.20;93.80;;;;;;4162492;34;20247;-62
2021/04/12 07:04:42;;;;;;;1.07;0.83;;;7.60;92.00;;;;;;4217738;33;20747;-63
2021/04/12 07:07:54;;;;;;;4.13;0.90;;;7.30;92.20;;;;;;4222143;33;20231;-62
2021/04/12 07:10:59;;;;;;;3.07;1.20;;;6.70;92.80;;;;;;4139114;34;1564885;-61
2021/04/12 07:13:54;;;;;;;3.60;0.90;;;5.30;95.10;;;;;;4177496;34;20198;-63
2021/04/12 07:16:53;;;;;;;4.27;1.10;;;4.60;97.40;;;;;;4199175;34;20185;-62
2021/04/12 07:20:05;;;;;;;5.00;1.00;;;4.40;98.80;;;;;;4200582;34;20227;-62
2021/04/12 07:23:05;;;;;;;2.47;1.23;;;4.00;99.80;;;;;;4185368;34;20216;-62
2021/04/12 07:26:10;;;;;;;3.67;1.63;;;4.00;99.90;;;;;;4185597;34;20213;-64
2021/04/12 07:29:23;;;;;;;3.83;1.60;;;4.10;99.90;;;;;;4182357;34;20295;-63
2021/04/12 07:32:06;;;;;;;4.80;1.50;;;4.30;99.90;;;;;;4196299;33;20175;-64
2021/04/12 07:35:09;;;;;;;5.20;1.67;;;4.50;99.90;;;;;;4234687;33;20175;-61
2021/04/12 07:38:10;;;;;;;7.67;2.20;;;4.70;99.90;;;;;;4207050;34;20170;-62
2021/04/12 07:44:14;;;;;;;6.53;1.73;;;5.20;99.90;;;;;;4155335;34;20507;-65
2021/04/12 07:47:22;;;;;;;4.50;1.43;;;5.80;99.00;;;;;;4165606;34;20181;-62
2021/04/12 07:50:21;;;;;;;4.77;1.60;;;6.20;97.40;;;;;;4175204;34;20643;-63
2021/04/12 07:53:23;;;;;;;6.83;2.37;;;7.40;97.00;;;;;;4182218;34;20382;-62
2021/04/12 07:56:38;;;;;;;7.43;1.60;;;9.70;92.30;;;;;;4200778;33;20197;-63
2021/04/12 07:59:38;;;;;;;5.00;1.27;;;11.90;84.90;;;;;;4194437;34;20172;-64
2021/04/12 08:02:44;;;;;;;2.87;0.83;;;17.50;65.30;;;;;;4198225;34;20245;-63
2021/04/12 08:05:44;;;;;;;2.90;1.10;;;22.60;49.10;;;;;;4197903;34;20248;-64
2021/04/12 08:08:32;;;;;;;2.47;0.97;;;27.50;37.10;;;;;;4204030;34;20224;-63
2021/04/12 08:11:42;;;;;;;1.80;0.90;;;30.30;33.50;;;;;;4198776;34;20267;-64
2021/04/12 08:15:10;;;;;;;1.87;0.70;;;31.30;31.10;;;;;;4218888;33;20175;-63
2021/04/12 08:18:13;;;;;;;4.47;1.03;;;28.00;31.20;;;;;;4237920;33;20189;-64
2021/04/12 08:21:23;;;;;;;1.97;0.93;;;22.10;37.80;;;;;;4264629;33;20197;-62
2021/04/12 08:24:40;;;;;;;6.87;1.77;;;19.50;43.60;;;;;;4251082;33;20241;-63
2021/04/12 08:27:50;;;;;;;3.93;0.80;;;16.00;54.20;;;;;;4259735;33;20309;-64
2021/04/12 08:31:03;;;;;;;5.40;1.00;;;15.00;60.60;;;;;;4285587;33;20174;-63
2021/04/12 08:34:13;;;;;;;4.50;1.37;;;13.90;63.60;;;;;;4257470;33;20186;-63
2021/04/12 08:37:16;;;;;;;3.67;1.73;;;11.70;70.50;;;;;;4254354;33;20179;-63
2021/04/12 08:40:20;;;;;;;3.67;1.77;;;9.30;79.50;;;;;;4258116;33;20227;-63
2021/04/12 08:43:09;;;;;;;5.37;2.43;;;8.30;85.50;;;;;;4258031;33;20171;-65
2021/04/12 08:46:10;;;;;;;3.40;1.80;;;7.80;88.50;;;;;;4255775;33;20305;-63
2021/04/12 08:48:52;;;;;;;7.57;2.13;;;7.40;90.50;;;;;;4300733;33;20216;-65
2021/04/12 08:51:48;;;;;;;5.10;1.90;;;7.80;90.30;;;;;;4315683;33;20168;-64
2021/04/12 08:54:35;;;;;;;3.83;2.90;;;8.50;89.40;;;;;;4300798;33;20178;-63
2021/04/12 08:57:38;;;;;;;4.77;2.13;;;9.20;85.70;;;;;;4300020;33;20632;-63
2021/04/12 09:01:00;;;;;;;4.13;1.67;;;9.00;85.10;;;;;;4299426;33;20188;-62
2021/04/12 09:04:10;;;;;;;2.10;1.83;;;7.70;89.10;;;;;;4257236;33;20213;-64
2021/04/12 09:07:19;;;;;;;5.93;1.43;;;6.60;91.90;;;;;;4215721;34;20172;-63
2021/04/12 09:10:29;;;;;;;2.17;0.90;;;5.20;94.40;;;;;;4219237;33;20309;-62
2021/04/12 09:13:36;;;;;;;1.17;0.97;;;3.60;98.30;;;;;;4234806;33;20188;-62
2021/04/12 09:16:25;;;;;;;4.20;1.67;;;2.80;99.90;;;;;;4215362;34;20191;-64
2021/04/12 09:19:40;;;;;;;4.50;1.70;;;2.60;99.90;;;;;;4209659;34;20168;-63
2021/04/12 09:22:48;;;;;;;2.53;2.33;;;2.70;99.90;;;;;;4216275;34;20251;-60
2021/04/12 09:25:48;;;;;;;3.83;1.87;;;3.00;99.90;;;;;;4207607;34;20168;-62
2021/04/12 09:28:50;;;;;;;4.00;2.00;;;3.40;99.90;;;;;;4216277;34;20680;-61
2021/04/12 09:31:43;;;;;;;3.23;1.80;;;3.70;99.90;;;;;;4189174;34;20231;-62
2021/04/12 09:34:48;;;;;;;2.33;1.67;;;3.70;99.90;;;;;;4201624;34;20168;-61
2021/04/12 09:38:00;;;;;;;1.87;1.40;;;3.90;99.90;;;;;;4200799;34;20265;-62
2021/04/12 09:40:53;;;;;;;3.30;1.83;;;3.80;99.90;;;;;;4210655;34;20639;-61
2021/04/12 09:44:08;;;;;;;2.67;1.47;;;3.90;99.90;;;;;;4230659;33;20187;-63
2021/04/12 09:47:13;;;;;;;2.37;1.50;;;4.20;99.90;;;;;;4235927;33;20297;-63
2021/04/12 09:50:13;;;;;;;1.67;1.50;;;4.60;99.90;;;;;;4236587;33;20317;-63
2021/04/12 09:53:21;;;;;;;1.53;1.30;;;5.40;99.90;;;;;;4259753;33;20651;-61
2021/04/12 09:56:12;;;;;;;1.30;1.20;;;6.20;99.90;;;;;;4208328;34;20184;-63
2021/04/12 09:59:10;;;;;;;1.73;1.37;;;6.70;98.70;;;;;;4199412;34;20332;-63
2021/04/12 10:01:53;;;;;;;2.13;1.60;;;6.70;98.10;;;;;;4201328;34;21373;-64
2021/04/12 10:04:44;;;;;;;1.70;1.60;;;6.70;97.70;;;;;;4201975;34;20210;-62
2021/04/12 10:07:15;;;;;;;2.47;1.97;;;6.80;97.50;;;;;;4203088;34;20258;-62
2021/04/12 10:10:00;;;;;;;2.47;1.93;;;7.10;97.00;;;;;;4214720;34;20183;-63
2021/04/12 10:13:04;;;;;;;3.27;2.20;;;7.60;95.80;;;;;;4225685;34;20239;-61
2021/04/12 10:15:56;;;;;;;2.87;2.43;;;7.60;96.20;;;;;;4240566;33;20237;-63
2021/04/12 10:18:33;;;;;;;5.90;2.50;;;7.50;96.10;;;;;;4268830;33;20535;-62
2021/04/12 10:21:13;;;;;;;2.93;2.30;;;7.80;94.90;;;;;;4271148;33;20185;-64
2021/04/12 10:23:44;;;;;;;4.30;2.77;;;7.50;95.10;;;;;;4271038;33;20218;-63
2021/04/12 10:26:16;;;;;;;3.00;2.70;;;7.30;95.70;;;;;;4272316;33;20158;-62
2021/04/12 10:28:48;;;;;;;2.83;2.63;;;7.00;96.20;;;;;;4275410;33;20170;-62
2021/04/12 10:31:26;;;;;;;5.07;3.00;;;6.90;96.70;;;;;;4274455;33;20277;-62
2021/04/12 10:34:05;;;;;;;3.60;3.10;;;7.00;97.40;;;;;;4364469;32;20175;-62
2021/04/12 10:36:38;;;;;;;3.23;2.73;;;6.90;96.80;;;;;;4364071;32;20176;-64
2021/04/12 10:39:10;;;;;;;3.57;3.27;;;6.80;96.30;;;;;;4372146;32;20254;-64
2021/04/12 10:41:46;;;;;;;3.47;2.97;;;6.60;97.30;;;;;;4374870;32;20195;-64
2021/04/12 10:44:18;;;;;;;3.10;2.83;;;6.70;97.20;;;;;;4362628;32;20175;-63
2021/04/12 10:47:13;;;;;;;5.17;3.30;;;6.70;96.70;;;;;;4363544;32;20227;-62
2021/04/12 10:50:06;;;;;;;2.83;2.50;;;6.80;97.70;;;;;;4364071;32;20304;-61
2021/04/12 10:52:57;;;;;;;3.80;2.77;;;6.80;96.60;;;;;;4360833;32;20521;-62
2021/04/12 10:55:27;;;;;;;4.83;2.80;;;7.00;96.40;;;;;;4364246;32;20224;-62
2021/04/12 10:58:15;;;;;;;4.37;2.60;;;7.10;95.70;;;;;;4362952;32;20727;-63
2021/04/12 11:00:50;;;;;;;4.63;2.60;;;7.30;95.00;;;;;;4363908;32;20157;-62
2021/04/12 11:03:45;;;;;;;4.00;2.33;;;7.50;94.20;;;;;;4361000;32;20176;-63
2021/04/12 11:06:38;;;;;;;5.47;2.40;;;7.50;93.40;;;;;;4347048;32;20209;-63
2021/04/12 11:09:27;;;;;;;3.83;1.97;;;7.80;94.50;;;;;;4309395;33;20169;-63
2021/04/12 11:11:56;;;;;;;1.73;1.60;;;8.10;93.00;;;;;;4317054;33;20339;-63
2021/04/12 11:14:29;;;;;;;3.23;1.83;;;8.20;91.40;;;;;;4320149;33;20189;-64
2021/04/12 11:17:04;;;;;;;4.47;1.83;;;8.20;89.80;;;;;;4326103;33;20195;-62
2021/04/12 11:19:39;;;;;;;4.43;2.13;;;8.20;88.70;;;;;;4330704;33;20156;-63
2021/04/12 11:22:16;;;;;;;1.90;1.70;;;8.30;89.60;;;;;;4330846;33;20207;-63
2021/04/12 11:24:54;;;;;;;3.30;2.07;;;8.90;89.10;;;;;;4324023;33;20606;-63
2021/04/12 11:28:01;;;;;;;3.73;2.10;;;9.30;84.90;;;;;;4328450;33;20489;-64
2021/04/12 11:30:33;;;;;;;2.13;1.80;;;9.00;83.20;;;;;;4324944;33;20431;-62
2021/04/12 11:33:17;;;;;;;4.57;2.37;;;9.10;84.10;;;;;;4325065;33;20216;-64
2021/04/12 11:35:57;;;;;;;5.43;2.13;;;8.90;82.20;;;;;;4325347;33;20738;-63
2021/04/12 11:38:28;;;;;;;4.67;2.73;;;9.20;82.30;;;;;;4328984;33;20196;-62
2021/04/12 11:40:59;;;;;;;5.70;2.57;;;9.90;81.80;;;;;;4318885;33;20157;-62
2021/04/12 11:43:30;;;;;;;4.60;2.10;;;10.10;80.00;;;;;;4324978;33;20217;-62
2021/04/12 11:46:06;;;;;;;6.87;2.17;;;9.30;79.60;;;;;;4321516;33;20184;-62
2021/04/12 11:48:52;;;;;;;3.70;2.50;;;7.70;85.00;;;;;;4320746;33;20171;-63
2021/04/12 11:51:33;;;;;;;3.20;2.13;;;6.40;90.20;;;;;;4327917;33;20161;-62
2021/04/12 11:54:03;;;;;;;4.20;2.53;;;6.00;92.00;;;;;;4328775;33;20544;-62
2021/04/12 11:56:44;;;;;;;5.33;2.27;;;5.80;92.60;;;;;;4325931;33;20174;-62
2021/04/12 11:59:22;;;;;;;3.93;2.43;;;5.90;93.30;;;;;;4330635;33;20157;-65
2021/04/12 12:01:52;;;;;;;6.00;1.80;;;5.80;93.80;;;;;;4320522;33;20157;-63
2021/04/12 12:04:37;;;;;;;3.57;1.63;;;6.20;92.50;;;;;;4321910;33;20225;-61
2021/04/12 12:07:29;;;;;;;3.57;1.70;;;6.50;92.10;;;;;;4323275;33;20556;-61
2021/04/12 12:10:11;;;;;;;1.40;0.90;;;7.30;91.30;;;;;;4320321;33;20153;-62
2021/04/12 12:12:45;;;;;;;1.60;1.03;;;7.50;83.30;;;;;;4319328;33;20235;-62
2021/04/12 12:15:20;;;;;;;4.73;1.00;;;7.80;83.60;;;;;;4328765;33;20180;-62
2021/04/12 12:17:56;;;;;;;5.50;0.90;;;8.30;79.00;;;;;;4326605;33;20157;-62
2021/04/12 12:20:26;;;;;;;3.23;1.13;;;8.20;74.00;;;;;;4331982;33;20598;-63
2021/04/12 12:22:59;;;;;;;4.80;1.20;;;8.40;73.70;;;;;;4328297;33;20177;-62
2021/04/12 12:25:40;;;;;;;3.40;0.83;;;8.20;74.70;;;;;;4321220;33;20236;-64
2021/04/12 12:28:16;;;;;;;2.63;0.93;;;7.90;73.60;;;;;;4327456;33;20153;-61
2021/04/12 12:30:53;;;;;;;3.83;1.07;;;7.50;76.10;;;;;;4331529;33;20199;-62
2021/04/12 12:33:28;;;;;;;3.27;0.97;;;7.30;75.50;;;;;;4329035;33;20169;-63
2021/04/12 12:36:06;;;;;;;1.60;1.00;;;7.40;77.00;;;;;;4327814;33;20470;-61
2021/04/12 12:39:00;;;;;;;1.97;1.30;;;7.60;78.60;;;;;;4320228;33;20157;-63
2021/04/12 12:41:28;;;;;;;2.33;1.27;;;7.80;79.90;;;;;;4322170;33;20219;-63
2021/04/12 12:44:06;;;;;;;3.20;1.20;;;8.10;77.60;;;;;;4325120;33;20220;-62
2021/04/12 12:46:36;;;;;;;3.53;1.07;;;8.10;71.70;;;;;;4332570;33;20150;-63
2021/04/12 12:49:07;;;;;;;2.33;1.10;;;8.30;74.00;;;;;;4329188;33;20158;-63
2021/04/12 12:51:38;;;;;;;3.40;1.40;;;8.40;69.60;;;;;;4332061;33;20199;-63
2021/04/12 12:54:13;;;;;;;1.80;1.27;;;8.40;73.50;;;;;;4328941;33;20652;-62
2021/04/12 12:56:42;;;;;;;1.83;1.13;;;8.20;71.60;;;;;;4330698;33;20165;-63
2021/04/12 12:59:21;;;;;;;3.23;1.47;;;7.90;70.90;;;;;;4326980;33;20559;-63
2021/04/12 13:01:52;;;;;;;3.63;1.80;;;7.90;71.50;;;;;;4323687;33;20174;-62
2021/04/12 13:04:23;;;;;;;4.47;1.87;;;7.80;71.90;;;;;;4328152;33;20224;-63
2021/04/12 13:06:53;;;;;;;4.17;1.20;;;7.70;73.90;;;;;;4321737;33;20213;-62
2021/04/12 13:09:28;;;;;;;3.13;1.50;;;7.40;70.90;;;;;;4327818;33;20219;-61
2021/04/12 13:11:57;;;;;;;3.63;1.50;;;7.30;72.90;;;;;;4331411;33;20196;-64
2021/04/12 13:14:43;;;;;;;3.87;1.53;;;7.40;75.80;;;;;;4325763;33;20188;-63
2021/04/12 13:17:23;;;;;;;4.03;1.90;;;7.30;73.10;;;;;;4318294;33;20166;-63
2021/04/12 13:19:53;;;;;;;4.07;2.10;;;7.20;73.90;;;;;;4329673;33;20266;-63
2021/04/12 13:22:25;;;;;;;5.60;1.80;;;7.10;73.00;;;;;;4315133;33;20533;-63
2021/04/12 13:24:52;;;;;;;4.27;1.70;;;7.00;74.20;;;;;;4318486;33;20157;-62
2021/04/12 13:27:22;;;;;;;5.17;1.80;;;6.90;75.00;;;;;;4320311;33;20166;-64
2021/04/12 13:29:52;;;;;;;4.73;2.00;;;6.80;77.00;;;;;;4330348;33;20172;-63
2021/04/12 13:32:23;;;;;;;6.03;1.90;;;6.80;74.30;;;;;;4328094;33;20254;-63
2021/04/12 13:34:53;;;;;;;6.07;1.93;;;6.90;75.60;;;;;;4330478;33;20169;-64
2021/04/12 13:37:24;;;;;;;5.93;2.03;;;6.90;76.80;;;;;;4328184;33;21549;-63
2021/04/12 13:40:00;;;;;;;4.63;1.97;;;6.90;77.70;;;;;;4330136;33;20470;-63
2021/04/12 13:42:31;;;;;;;3.00;2.03;;;7.00;78.80;;;;;;4327239;33;20165;-64
2021/04/12 13:45:00;;;;;;;7.70;2.50;;;7.00;79.50;;;;;;4323522;33;20180;-63
2021/04/12 13:47:41;;;;;;;5.83;3.07;;;7.40;82.90;;;;;;4317696;33;20209;-64
2021/04/12 13:50:16;;;;;;;4.57;2.60;;;7.80;81.90;;;;;;4319139;33;20177;-64
2021/04/12 13:52:49;;;;;;;5.43;2.47;;;8.40;81.00;;;;;;4329401;33;20153;-64
2021/04/12 13:55:25;;;;;;;7.87;2.40;;;9.50;80.80;;;;;;4330904;33;20265;-65
2021/04/12 13:57:56;;;;;;;4.67;1.73;;;10.10;75.60;;;;;;4330193;33;20239;-65
2021/04/12 14:00:28;;;;;;;3.03;2.03;;;9.90;69.50;;;;;;4326051;33;20165;-63
2021/04/12 14:03:01;;;;;;;3.40;1.57;;;9.70;72.10;;;;;;4328053;33;20236;-66
2021/04/12 14:05:29;;;;;;;3.80;2.10;;;9.40;74.10;;;;;;4330060;33;20184;-65
2021/04/12 14:08:06;;;;;;;3.50;2.00;;;9.20;79.30;;;;;;4328996;33;20180;-66
2021/04/12 14:10:39;;;;;;;2.00;1.67;;;9.20;76.60;;;;;;4329383;33;20271;-64
2021/04/12 14:13:13;;;;;;;3.37;1.77;;;9.30;75.70;;;;;;4328547;33;20243;-63
2021/04/12 14:15:59;;;;;;;3.00;1.77;;;9.70;76.10;;;;;;4329076;33;20227;-64
2021/04/12 14:18:33;;;;;;;2.50;1.43;;;9.90;75.00;;;;;;4329125;33;20158;-63
2021/04/12 14:21:06;;;;;;;1.57;1.30;;;9.50;65.50;;;;;;4327688;33;20532;-65
2021/04/12 14:23:35;;;;;;;4.60;1.70;;;9.40;65.60;;;;;;4327074;33;20233;-62
2021/04/12 14:26:08;;;;;;;3.23;1.33;;;9.50;67.90;;;;;;4329601;33;20207;-62
2021/04/12 14:28:43;;;;;;;1.63;1.30;;;9.70;67.10;;;;;;4324502;33;20331;-65
2021/04/12 14:31:19;;;;;;;4.43;1.70;;;9.70;66.30;;;;;;4323967;33;20240;-66
2021/04/12 14:33:52;;;;;;;3.83;1.30;;;9.90;66.40;;;;;;4325642;33;20252;-65
2021/04/12 14:36:23;;;;;;;2.83;1.30;;;10.00;66.30;;;;;;4327735;33;20154;-65
2021/04/12 14:38:54;;;;;;;5.23;1.87;;;10.00;65.80;;;;;;4328827;33;20506;-64
2021/04/12 14:41:28;;;;;;;6.10;1.50;;;10.00;67.70;;;;;;4326728;33;20181;-65
2021/04/12 14:43:58;;;;;;;3.47;1.40;;;9.90;65.80;;;;;;4328670;33;20224;-65